Time;durP1;ratioP1;P1;durP2;ratioP2;P2;SDS_P1;SDS_P2;PMS_P1;PMS_P2;Temp;Humidity;BMP_temperature;BMP_pressure;BME280_temperature;BME280_humidity;BME280_pressure;Samples;Min_cycle;Max_cycle;Signal;HPM_P1;HPM_P2
2022/01/14 00:00:03;;;;;;;19.13;9.83;;;;;;;;;;5078430;28;20433;-50
2022/01/14 00:02:40;;;;;;;24.87;10.03;;;;;;;;;;5073430;28;21982;-53
2022/01/14 00:05:34;;;;;;;18.70;9.50;;;;;;;;;;5090507;28;20521;-50
2022/01/14 00:08:02;;;;;;;18.73;10.60;;;;;;;;;;5092004;28;21167;-51
2022/01/14 00:10:31;;;;;;;19.47;10.87;;;;;;;;;;5054896;28;20455;-47
2022/01/14 00:13:07;;;;;;;20.17;11.73;;;;;;;;;;5093584;28;20527;-50
2022/01/14 00:15:35;;;;;;;16.37;10.20;;;;;;;;;;5071099;28;20483;-49
2022/01/14 00:18:01;;;;;;;10.17;9.00;;;;;;;;;;5099161;28;20508;-51
2022/01/14 00:20:27;;;;;;;17.50;9.73;;;;;;;;;;5077204;28;20981;-51
2022/01/14 00:22:53;;;;;;;15.17;9.50;;;;;;;;;;5085541;28;20455;-51
2022/01/14 00:33:38;;;;;;;16.13;9.03;;;;;;;;;;5089797;28;20475;-49
2022/01/14 00:36:04;;;;;;;18.60;10.17;;;;;;;;;;5060770;28;20475;-49
2022/01/14 00:38:30;;;;;;;16.77;9.33;;;;;;;;;;5086521;28;20458;-48
2022/01/14 00:40:56;;;;;;;18.23;11.10;;;;;;;;;;5074475;28;20490;-49
2022/01/14 00:43:27;;;;;;;22.60;11.90;;;;;;;;;;5095369;28;20457;-49
2022/01/14 00:45:55;;;;;;;18.97;9.80;;;;;;;;;;5078438;28;20547;-49
2022/01/14 00:48:21;;;;;;;18.83;10.30;;;;;;;;;;5078180;28;20434;-48
2022/01/14 00:50:47;;;;;;;21.70;10.50;;;;;;;;;;5085373;28;20508;-49
2022/01/14 00:53:15;;;;;;;22.13;11.00;;;;;;;;;;5092059;28;20433;-49
2022/01/14 00:55:52;;;;;;;14.27;11.17;;;;;;;;;;5053873;28;20472;-49
2022/01/14 01:01:03;;;;;;;18.17;12.50;;;;;;;;;;5061111;28;20947;-50
2022/01/14 01:03:34;;;;;;;20.50;12.30;;;;;;;;;;5094563;28;20437;-50
2022/01/14 01:06:02;;;;;;;14.77;9.30;;;;;;;;;;5069143;28;20965;-50
2022/01/14 01:08:29;;;;;;;13.73;8.50;;;;;;;;;;5069885;28;20493;-49
2022/01/14 01:10:56;;;;;;;19.93;10.40;;;;;;;;;;5051450;28;20451;-50
2022/01/14 01:13:29;;;;;;;19.43;10.57;;;;;;;;;;5092629;28;20424;-49
2022/01/14 01:15:56;;;;;;;15.60;10.00;;;;;;;;;;5064083;28;20483;-50
2022/01/14 01:18:22;;;;;;;15.10;9.23;;;;;;;;;;5063789;28;20866;-48
2022/01/14 01:20:48;;;;;;;18.60;9.50;;;;;;;;;;5089303;28;20432;-51
2022/01/14 01:23:15;;;;;;;18.33;8.80;;;;;;;;;;5088892;28;20815;-51
2022/01/14 01:25:47;;;;;;;16.10;10.30;;;;;;;;;;5091169;28;20441;-49
2022/01/14 01:28:13;;;;;;;17.10;10.27;;;;;;;;;;5072823;28;20431;-48
2022/01/14 01:33:39;;;;;;;16.00;10.33;;;;;;;;;;5086044;28;20431;-50
2022/01/14 01:36:12;;;;;;;18.47;10.73;;;;;;;;;;5096572;28;20472;-50
2022/01/14 01:38:42;;;;;;;17.03;9.87;;;;;;;;;;5039146;28;20711;-50
2022/01/14 01:41:12;;;;;;;18.30;10.27;;;;;;;;;;5074815;28;20614;-49
2022/01/14 01:44:09;;;;;;;19.80;9.63;;;;;;;;;;5077911;28;20443;-50
2022/01/14 01:46:43;;;;;;;16.73;11.50;;;;;;;;;;5093360;28;20446;-49
2022/01/14 01:49:11;;;;;;;23.60;10.37;;;;;;;;;;5070001;28;20531;-49
2022/01/14 01:51:37;;;;;;;17.20;10.03;;;;;;;;;;5093424;28;20436;-48
2022/01/14 01:54:03;;;;;;;16.43;8.97;;;;;;;;;;5087415;28;20949;-49
2022/01/14 01:56:31;;;;;;;16.50;10.67;;;;;;;;;;5072909;28;20807;-49
2022/01/14 01:58:57;;;;;;;16.17;10.40;;;;;;;;;;5068887;28;20690;-50
2022/01/14 02:01:25;;;;;;;19.60;12.40;;;;;;;;;;5091782;28;20497;-49
2022/01/14 02:03:56;;;;;;;19.43;9.90;;;;;;;;;;5052908;28;20561;-49
2022/01/14 02:06:23;;;;;;;23.13;11.70;;;;;;;;;;5087042;28;20785;-50
2022/01/14 02:08:49;;;;;;;16.90;10.47;;;;;;;;;;5073139;28;20633;-49
2022/01/14 02:11:17;;;;;;;17.53;10.67;;;;;;;;;;5098937;28;22129;-49
2022/01/14 02:13:43;;;;;;;20.80;10.40;;;;;;;;;;5051864;28;21132;-51
2022/01/14 02:16:20;;;;;;;14.47;9.83;;;;;;;;;;5063995;28;20472;-52
2022/01/14 02:24:20;;;;;;;14.60;10.00;;;;;;;;;;5073908;28;20446;-49
2022/01/14 02:26:51;;;;;;;15.20;9.47;;;;;;;;;;5095180;28;20440;-50
2022/01/14 02:29:17;;;;;;;14.80;10.93;;;;;;;;;;5085642;28;21015;-49
2022/01/14 02:31:45;;;;;;;19.37;11.10;;;;;;;;;;5078145;28;20444;-49
2022/01/14 02:34:11;;;;;;;20.37;11.27;;;;;;;;;;5062252;28;20517;-49
2022/01/14 02:36:39;;;;;;;19.93;10.97;;;;;;;;;;5077333;28;20896;-50
2022/01/14 02:39:05;;;;;;;16.70;11.60;;;;;;;;;;5051503;28;20441;-50
2022/01/14 02:41:38;;;;;;;16.23;10.03;;;;;;;;;;5093290;28;20432;-49
2022/01/14 02:44:08;;;;;;;16.13;10.33;;;;;;;;;;5060561;28;21366;-49
2022/01/14 02:46:39;;;;;;;16.03;11.07;;;;;;;;;;5092535;28;20473;-48
2022/01/14 02:49:05;;;;;;;19.07;10.13;;;;;;;;;;5078988;28;23274;-50
2022/01/14 02:51:41;;;;;;;17.93;12.47;;;;;;;;;;5079302;28;20569;-49
2022/01/14 02:54:15;;;;;;;21.70;12.30;;;;;;;;;;5094829;28;20505;-50
2022/01/14 02:56:44;;;;;;;21.40;10.17;;;;;;;;;;5055869;28;20490;-49
2022/01/14 02:59:11;;;;;;;13.03;9.77;;;;;;;;;;5071608;28;20441;-50
2022/01/14 03:01:37;;;;;;;14.13;10.20;;;;;;;;;;5054203;28;20449;-49
2022/01/14 03:04:04;;;;;;;17.70;12.00;;;;;;;;;;5090126;28;20449;-49
2022/01/14 03:06:30;;;;;;;17.63;10.80;;;;;;;;;;5069114;28;20477;-49
2022/01/14 03:08:57;;;;;;;24.47;11.40;;;;;;;;;;5096968;28;20431;-49
2022/01/14 03:11:30;;;;;;;20.30;12.70;;;;;;;;;;5076941;28;20535;-49
2022/01/14 03:14:02;;;;;;;22.60;11.67;;;;;;;;;;5080689;28;20442;-49
2022/01/14 03:16:40;;;;;;;20.63;12.27;;;;;;;;;;5044677;28;24431;-49
2022/01/14 03:19:11;;;;;;;16.37;11.50;;;;;;;;;;5067525;28;20499;-49
2022/01/14 03:21:42;;;;;;;20.90;13.43;;;;;;;;;;5074469;28;20433;-50
2022/01/14 03:24:21;;;;;;;15.87;10.20;;;;;;;;;;5083592;28;20428;-50
2022/01/14 03:26:47;;;;;;;19.93;12.60;;;;;;;;;;5071067;28;20452;-48
2022/01/14 03:29:13;;;;;;;20.10;12.43;;;;;;;;;;5096858;28;20464;-50
2022/01/14 03:31:40;;;;;;;18.80;10.83;;;;;;;;;;5066753;28;21082;-49
2022/01/14 03:34:23;;;;;;;20.60;13.50;;;;;;;;;;5094083;28;20850;-49
2022/01/14 03:36:52;;;;;;;20.60;11.10;;;;;;;;;;5087406;28;20479;-48
2022/01/14 03:39:18;;;;;;;19.33;10.77;;;;;;;;;;5078194;28;21111;-48
2022/01/14 03:41:47;;;;;;;19.67;12.07;;;;;;;;;;5084994;28;20494;-50
2022/01/14 03:44:20;;;;;;;16.50;11.87;;;;;;;;;;5070883;28;20866;-50
2022/01/14 03:46:47;;;;;;;19.93;10.90;;;;;;;;;;5091623;28;20475;-48
2022/01/14 03:49:13;;;;;;;18.27;11.53;;;;;;;;;;5061796;28;20754;-49
2022/01/14 03:51:42;;;;;;;17.83;11.70;;;;;;;;;;5079364;28;20506;-49
2022/01/14 03:54:09;;;;;;;14.73;10.20;;;;;;;;;;5095450;28;21038;-48
2022/01/14 03:56:36;;;;;;;20.30;11.13;;;;;;;;;;5090938;28;20476;-48
2022/01/14 03:59:03;;;;;;;19.07;10.77;;;;;;;;;;5063064;28;20432;-49
2022/01/14 04:01:32;;;;;;;24.23;11.70;;;;;;;;;;5092157;28;20445;-49
2022/01/14 04:04:01;;;;;;;19.50;12.47;;;;;;;;;;5093392;28;20696;-50
2022/01/14 04:06:30;;;;;;;17.20;12.63;;;;;;;;;;5094763;28;20484;-49
2022/01/14 04:09:20;;;;;;;17.63;11.83;;;;;;;;;;5079513;28;20879;-50
2022/01/14 04:12:01;;;;;;;24.90;11.90;;;;;;;;;;5093625;28;20428;-50
2022/01/14 04:16:53;;;;;;;18.10;10.87;;;;;;;;;;5096654;28;20597;-50
2022/01/14 04:19:19;;;;;;;19.53;10.80;;;;;;;;;;5058138;28;20461;-49
2022/01/14 04:21:48;;;;;;;18.70;10.67;;;;;;;;;;5057605;28;20439;-49
2022/01/14 04:24:18;;;;;;;22.73;12.57;;;;;;;;;;5092486;28;20478;-49
2022/01/14 04:26:44;;;;;;;18.40;11.20;;;;;;;;;;5075374;28;20443;-48
2022/01/14 04:29:10;;;;;;;16.50;10.63;;;;;;;;;;5080284;28;20522;-48
2022/01/14 04:31:36;;;;;;;18.30;10.80;;;;;;;;;;5066801;28;20559;-48
2022/01/14 04:34:03;;;;;;;18.77;12.40;;;;;;;;;;5096605;28;20531;-49
2022/01/14 04:36:42;;;;;;;17.43;9.53;;;;;;;;;;5092183;28;21073;-50
2022/01/14 04:39:08;;;;;;;21.17;11.90;;;;;;;;;;5091604;28;21547;-49
2022/01/14 04:41:34;;;;;;;16.77;10.00;;;;;;;;;;5071686;28;20429;-50
2022/01/14 04:44:01;;;;;;;18.00;10.73;;;;;;;;;;5081467;28;20569;-50
2022/01/14 04:48:55;;;;;;;19.00;10.77;;;;;;;;;;5089804;28;20436;-49
2022/01/14 04:51:22;;;;;;;16.27;11.63;;;;;;;;;;5088680;28;20444;-50
2022/01/14 04:53:51;;;;;;;16.80;10.83;;;;;;;;;;5094001;28;20794;-50
2022/01/14 04:56:27;;;;;;;19.73;11.87;;;;;;;;;;5080287;28;20484;-50
2022/01/14 04:58:56;;;;;;;13.07;9.50;;;;;;;;;;5087861;28;20444;-51
2022/01/14 05:01:39;;;;;;;15.07;8.97;;;;;;;;;;5091284;28;20861;-50
2022/01/14 05:04:12;;;;;;;19.80;10.87;;;;;;;;;;5076884;28;21079;-50
2022/01/14 05:06:45;;;;;;;18.87;10.43;;;;;;;;;;5092264;28;20930;-50
2022/01/14 05:09:23;;;;;;;16.50;10.03;;;;;;;;;;5072511;28;20451;-50
2022/01/14 05:12:05;;;;;;;16.20;10.00;;;;;;;;;;5086793;28;20430;-50
2022/01/14 05:14:32;;;;;;;11.03;8.00;;;;;;;;;;5079382;28;20436;-50
2022/01/14 05:17:19;;;;;;;9.67;6.90;;;;;;;;;;5086752;28;20593;-50
2022/01/14 05:19:50;;;;;;;16.17;9.33;;;;;;;;;;5094412;28;20432;-49
2022/01/14 05:22:17;;;;;;;14.53;8.77;;;;;;;;;;5075247;28;20432;-50
2022/01/14 05:24:46;;;;;;;15.60;9.00;;;;;;;;;;5103573;28;20569;-50
2022/01/14 05:27:31;;;;;;;20.60;10.20;;;;;;;;;;5065613;28;20534;-49
2022/01/14 05:29:57;;;;;;;15.87;11.03;;;;;;;;;;5088774;28;20448;-49
2022/01/14 05:32:33;;;;;;;17.30;9.43;;;;;;;;;;5077222;28;20917;-49
2022/01/14 05:35:05;;;;;;;22.40;12.63;;;;;;;;;;5085396;28;20214;-50
2022/01/14 05:37:43;;;;;;;16.23;10.63;;;;;;;;;;5076929;28;20448;-50
2022/01/14 05:40:11;;;;;;;17.70;11.53;;;;;;;;;;5057349;28;21205;-49
2022/01/14 05:42:37;;;;;;;18.73;11.57;;;;;;;;;;5092588;28;20489;-49
2022/01/14 05:45:05;;;;;;;16.93;9.00;;;;;;;;;;5088083;28;20428;-50
2022/01/14 05:47:31;;;;;;;14.80;9.23;;;;;;;;;;5097132;28;20772;-50
2022/01/14 05:50:11;;;;;;;17.30;9.17;;;;;;;;;;5060663;28;20520;-51
2022/01/14 05:52:43;;;;;;;18.77;9.83;;;;;;;;;;5073101;28;20583;-50
2022/01/14 05:55:11;;;;;;;15.90;9.60;;;;;;;;;;5065981;28;20464;-49
2022/01/14 05:57:38;;;;;;;16.17;9.30;;;;;;;;;;5092398;28;20450;-50
2022/01/14 06:00:09;;;;;;;14.07;8.40;;;;;;;;;;5046637;28;21445;-50
2022/01/14 06:02:38;;;;;;;16.90;11.63;;;;;;;;;;5093559;28;20452;-50
2022/01/14 06:05:07;;;;;;;18.47;9.70;;;;;;;;;;5077519;28;20745;-54
2022/01/14 06:07:34;;;;;;;15.63;11.20;;;;;;;;;;5094429;28;22074;-51
2022/01/14 06:10:00;;;;;;;16.27;9.00;;;;;;;;;;5070302;28;20448;-50
2022/01/14 06:12:27;;;;;;;19.30;11.90;;;;;;;;;;5089656;28;20470;-50
2022/01/14 06:15:17;;;;;;;17.70;9.77;;;;;;;;;;5075934;28;20456;-50
2022/01/14 06:17:46;;;;;;;20.63;11.90;;;;;;;;;;5091400;28;20846;-51
2022/01/14 06:20:14;;;;;;;17.73;9.80;;;;;;;;;;5064933;28;20436;-51
2022/01/14 06:22:40;;;;;;;15.80;9.97;;;;;;;;;;5088098;28;20495;-49
2022/01/14 06:25:11;;;;;;;13.73;9.57;;;;;;;;;;5055657;28;20465;-50
2022/01/14 06:27:38;;;;;;;16.13;8.17;;;;;;;;;;5090610;28;20898;-50
2022/01/14 06:30:05;;;;;;;11.00;8.10;;;;;;;;;;5074081;28;22899;-50
2022/01/14 06:32:32;;;;;;;13.43;9.70;;;;;;;;;;5090828;28;20442;-51
2022/01/14 06:35:02;;;;;;;11.60;7.60;;;;;;;;;;5076337;28;20989;-49
2022/01/14 06:37:29;;;;;;;10.10;7.63;;;;;;;;;;5093106;28;20446;-48
2022/01/14 06:39:55;;;;;;;14.47;8.70;;;;;;;;;;5071783;28;20802;-49
2022/01/14 06:42:21;;;;;;;23.23;8.30;;;;;;;;;;5101477;28;21724;-49
2022/01/14 06:44:55;;;;;;;8.83;7.53;;;;;;;;;;5080903;28;20436;-50
2022/01/14 06:47:25;;;;;;;11.00;8.07;;;;;;;;;;5098809;28;20440;-50
2022/01/14 06:49:51;;;;;;;11.80;7.43;;;;;;;;;;5096235;28;20999;-51
2022/01/14 06:52:17;;;;;;;12.67;8.70;;;;;;;;;;5099966;28;20429;-50
2022/01/14 06:54:44;;;;;;;11.07;7.03;;;;;;;;;;5078485;28;21000;-48
2022/01/14 06:57:10;;;;;;;12.80;7.53;;;;;;;;;;5100745;28;21143;-51
2022/01/14 06:59:36;;;;;;;11.20;6.80;;;;;;;;;;5095907;28;20500;-49
2022/01/14 07:02:02;;;;;;;13.60;7.73;;;;;;;;;;5105486;28;20532;-48
2022/01/14 07:04:54;;;;;;;9.30;7.37;;;;;;;;;;5097552;28;20535;-50
2022/01/14 07:07:20;;;;;;;13.50;7.67;;;;;;;;;;5100155;28;20440;-49
2022/01/14 07:09:59;;;;;;;16.90;8.13;;;;;;;;;;5087112;28;20519;-49
2022/01/14 07:12:38;;;;;;;14.23;8.23;;;;;;;;;;5096718;28;20436;-50
2022/01/14 07:15:08;;;;;;;14.87;8.47;;;;;;;;;;5076886;28;20464;-50
2022/01/14 07:17:34;;;;;;;19.80;11.57;;;;;;;;;;5083218;28;20817;-49
2022/01/14 07:20:23;;;;;;;22.87;11.20;;;;;;;;;;5067521;28;20994;-52
2022/01/14 07:22:54;;;;;;;14.10;9.23;;;;;;;;;;5089296;28;20427;-49
2022/01/14 07:25:20;;;;;;;9.87;6.63;;;;;;;;;;5079307;28;20547;-49
2022/01/14 07:27:46;;;;;;;16.30;8.60;;;;;;;;;;5093010;28;20429;-50
2022/01/14 07:30:14;;;;;;;10.80;8.30;;;;;;;;;;5071394;28;21737;-50
2022/01/14 07:32:41;;;;;;;13.87;7.57;;;;;;;;;;5092969;28;20451;-51
2022/01/14 07:35:08;;;;;;;14.40;8.40;;;;;;;;;;5051858;28;20571;-49
2022/01/14 07:37:36;;;;;;;14.70;8.40;;;;;;;;;;5091483;28;20484;-48
2022/01/14 07:40:22;;;;;;;13.93;8.20;;;;;;;;;;5066585;28;20500;-50
2022/01/14 07:42:48;;;;;;;12.67;8.23;;;;;;;;;;5082625;28;20904;-50
2022/01/14 07:45:36;;;;;;;14.00;9.23;;;;;;;;;;5064955;28;20594;-52
2022/01/14 07:48:05;;;;;;;10.53;7.53;;;;;;;;;;5071026;28;21393;-51
2022/01/14 07:50:49;;;;;;;22.50;9.73;;;;;;;;;;5065844;28;20481;-50
2022/01/14 07:53:20;;;;;;;15.77;8.47;;;;;;;;;;5085548;28;20437;-51
2022/01/14 07:55:47;;;;;;;13.10;7.73;;;;;;;;;;5050073;28;20468;-49
2022/01/14 07:58:13;;;;;;;11.70;7.80;;;;;;;;;;5088362;28;20507;-48
2022/01/14 08:00:40;;;;;;;11.53;7.70;;;;;;;;;;5055387;28;20460;-49
2022/01/14 08:03:07;;;;;;;13.03;7.87;;;;;;;;;;5079978;28;20436;-51
2022/01/14 08:05:35;;;;;;;12.73;7.70;;;;;;;;;;5064622;28;21117;-51
2022/01/14 08:08:07;;;;;;;14.57;9.20;;;;;;;;;;5087893;28;20447;-51
2022/01/14 08:11:10;;;;;;;14.00;8.53;;;;;;;;;;5063136;28;20452;-52
2022/01/14 08:13:40;;;;;;;16.80;10.33;;;;;;;;;;5085711;28;21016;-50
2022/01/14 08:16:38;;;;;;;15.60;9.50;;;;;;;;;;5057322;28;20456;-51
2022/01/14 08:19:08;;;;;;;10.40;7.80;;;;;;;;;;5093211;28;20478;-50
2022/01/14 08:21:34;;;;;;;9.87;7.73;;;;;;;;;;5085153;28;20444;-49
2022/01/14 08:24:00;;;;;;;14.67;8.20;;;;;;;;;;5084007;28;20516;-49
2022/01/14 08:26:33;;;;;;;12.70;7.93;;;;;;;;;;5087475;28;20436;-50
2022/01/14 08:29:01;;;;;;;8.40;6.30;;;;;;;;;;5092643;28;20440;-50
